sensor_id;sensor_type;location;lat;lon;timestamp;pressure;altitude;pressure_sealevel;temperature
11321;BMP180;5715;48.234;14.320;2023-04-20T00:00:55;98559.00;;;14.40
11321;BMP180;5715;48.234;14.320;2023-04-20T00:03:43;98554.00;;;14.50
11321;BMP180;5715;48.234;14.320;2023-04-20T00:06:31;98559.00;;;14.40
11321;BMP180;5715;48.234;14.320;2023-04-20T00:09:20;98546.00;;;14.50
11321;BMP180;5715;48.234;14.320;2023-04-20T00:12:08;98545.00;;;14.50
11321;BMP180;5715;48.234;14.320;2023-04-20T00:14:55;98535.00;;;14.40
11321;BMP180;5715;48.234;14.320;2023-04-20T00:17:43;98539.00;;;14.40
11321;BMP180;5715;48.234;14.320;2023-04-20T00:20:30;98530.00;;;14.40
11321;BMP180;5715;48.234;14.320;2023-04-20T00:23:18;98520.00;;;14.40
11321;BMP180;5715;48.234;14.320;2023-04-20T00:26:07;98530.00;;;14.40
11321;BMP180;5715;48.234;14.320;2023-04-20T00:28:54;98529.00;;;14.40
11321;BMP180;5715;48.234;14.320;2023-04-20T00:31:42;98519.00;;;14.50
11321;BMP180;5715;48.234;14.320;2023-04-20T00:34:29;98516.00;;;14.40
11321;BMP180;5715;48.234;14.320;2023-04-20T00:37:17;98518.00;;;14.50
11321;BMP180;5715;48.234;14.320;2023-04-20T00:40:06;98522.00;;;14.50
11321;BMP180;5715;48.234;14.320;2023-04-20T00:42:53;98520.00;;;14.50
11321;BMP180;5715;48.234;14.320;2023-04-20T00:45:41;98521.00;;;14.40
11321;BMP180;5715;48.234;14.320;2023-04-20T00:48:29;98508.00;;;14.40
11321;BMP180;5715;48.234;14.320;2023-04-20T00:51:20;98515.00;;;14.50
11321;BMP180;5715;48.234;14.320;2023-04-20T00:54:08;98509.00;;;14.50
11321;BMP180;5715;48.234;14.320;2023-04-20T00:56:57;98497.00;;;14.50
11321;BMP180;5715;48.234;14.320;2023-04-20T00:59:45;98502.00;;;14.50
11321;BMP180;5715;48.234;14.320;2023-04-20T01:02:33;98494.00;;;14.50
11321;BMP180;5715;48.234;14.320;2023-04-20T01:05:21;98487.00;;;14.80
11321;BMP180;5715;48.234;14.320;2023-04-20T01:08:09;98489.00;;;14.60
11321;BMP180;5715;48.234;14.320;2023-04-20T01:10:57;98493.00;;;14.60
11321;BMP180;5715;48.234;14.320;2023-04-20T01:13:44;98484.00;;;14.50
11321;BMP180;5715;48.234;14.320;2023-04-20T01:16:32;98483.00;;;14.70
11321;BMP180;5715;48.234;14.320;2023-04-20T01:19:23;98488.00;;;14.20
11321;BMP180;5715;48.234;14.320;2023-04-20T01:22:21;98489.00;;;14.40
11321;BMP180;5715;48.234;14.320;2023-04-20T01:25:09;98483.00;;;14.30
11321;BMP180;5715;48.234;14.320;2023-04-20T01:27:56;98475.00;;;14.50
11321;BMP180;5715;48.234;14.320;2023-04-20T01:30:44;98477.00;;;14.60
11321;BMP180;5715;48.234;14.320;2023-04-20T01:33:32;98475.00;;;14.60
11321;BMP180;5715;48.234;14.320;2023-04-20T01:36:19;98472.00;;;14.50
11321;BMP180;5715;48.234;14.320;2023-04-20T01:39:07;98480.00;;;14.40
11321;BMP180;5715;48.234;14.320;2023-04-20T01:41:56;98476.00;;;13.90
11321;BMP180;5715;48.234;14.320;2023-04-20T01:44:44;98471.00;;;13.70
11321;BMP180;5715;48.234;14.320;2023-04-20T01:47:33;98472.00;;;13.90
11321;BMP180;5715;48.234;14.320;2023-04-20T01:50:21;98464.00;;;14.00
11321;BMP180;5715;48.234;14.320;2023-04-20T01:53:08;98454.00;;;13.70
11321;BMP180;5715;48.234;14.320;2023-04-20T01:55:56;98452.00;;;13.40
11321;BMP180;5715;48.234;14.320;2023-04-20T01:58:43;98447.00;;;13.80
11321;BMP180;5715;48.234;14.320;2023-04-20T02:01:31;98441.00;;;13.70
11321;BMP180;5715;48.234;14.320;2023-04-20T02:04:19;98440.00;;;14.00
11321;BMP180;5715;48.234;14.320;2023-04-20T02:07:07;98442.00;;;13.80
11321;BMP180;5715;48.234;14.320;2023-04-20T02:09:55;98436.00;;;13.90
11321;BMP180;5715;48.234;14.320;2023-04-20T02:12:42;98436.00;;;13.90
11321;BMP180;5715;48.234;14.320;2023-04-20T02:15:30;98431.00;;;13.50
11321;BMP180;5715;48.234;14.320;2023-04-20T02:18:17;98432.00;;;13.40
11321;BMP180;5715;48.234;14.320;2023-04-20T02:21:05;98440.00;;;13.40
11321;BMP180;5715;48.234;14.320;2023-04-20T02:23:53;98425.00;;;13.70
11321;BMP180;5715;48.234;14.320;2023-04-20T02:26:40;98426.00;;;13.50
11321;BMP180;5715;48.234;14.320;2023-04-20T02:29:28;98428.00;;;13.70
11321;BMP180;5715;48.234;14.320;2023-04-20T02:32:16;98416.00;;;13.80
11321;BMP180;5715;48.234;14.320;2023-04-20T02:35:04;98424.00;;;13.60
11321;BMP180;5715;48.234;14.320;2023-04-20T02:37:51;98419.00;;;13.60
11321;BMP180;5715;48.234;14.320;2023-04-20T02:40:39;98415.00;;;13.60
11321;BMP180;5715;48.234;14.320;2023-04-20T02:43:26;98416.00;;;13.20
11321;BMP180;5715;48.234;14.320;2023-04-20T02:46:14;98416.00;;;13.50
11321;BMP180;5715;48.234;14.320;2023-04-20T02:49:02;98412.00;;;13.50
11321;BMP180;5715;48.234;14.320;2023-04-20T02:51:49;98415.00;;;13.60
11321;BMP180;5715;48.234;14.320;2023-04-20T02:54:37;98410.00;;;13.60
11321;BMP180;5715;48.234;14.320;2023-04-20T02:57:25;98413.00;;;13.50
11321;BMP180;5715;48.234;14.320;2023-04-20T03:00:13;98409.00;;;13.70
11321;BMP180;5715;48.234;14.320;2023-04-20T03:03:00;98408.00;;;13.60
11321;BMP180;5715;48.234;14.320;2023-04-20T03:05:48;98401.00;;;13.70
11321;BMP180;5715;48.234;14.320;2023-04-20T03:08:36;98408.00;;;13.50
11321;BMP180;5715;48.234;14.320;2023-04-20T03:11:23;98399.00;;;13.80
11321;BMP180;5715;48.234;14.320;2023-04-20T03:14:11;98400.00;;;13.40
11321;BMP180;5715;48.234;14.320;2023-04-20T03:16:58;98399.00;;;13.30
11321;BMP180;5715;48.234;14.320;2023-04-20T03:19:46;98406.00;;;13.50
11321;BMP180;5715;48.234;14.320;2023-04-20T03:22:33;98402.00;;;13.40
11321;BMP180;5715;48.234;14.320;2023-04-20T03:25:21;98400.00;;;13.40
11321;BMP180;5715;48.234;14.320;2023-04-20T03:28:09;98395.00;;;13.30
11321;BMP180;5715;48.234;14.320;2023-04-20T03:30:56;98395.00;;;13.20
11321;BMP180;5715;48.234;14.320;2023-04-20T03:33:44;98392.00;;;12.90
11321;BMP180;5715;48.234;14.320;2023-04-20T03:36:31;98385.00;;;12.80
11321;BMP180;5715;48.234;14.320;2023-04-20T03:39:19;98386.00;;;12.90
11321;BMP180;5715;48.234;14.320;2023-04-20T03:42:07;98386.00;;;12.90
11321;BMP180;5715;48.234;14.320;2023-04-20T03:44:55;98387.00;;;13.30
11321;BMP180;5715;48.234;14.320;2023-04-20T03:47:43;98391.00;;;13.30
11321;BMP180;5715;48.234;14.320;2023-04-20T03:50:31;98393.00;;;13.40
11321;BMP180;5715;48.234;14.320;2023-04-20T03:53:18;98394.00;;;13.20
11321;BMP180;5715;48.234;14.320;2023-04-20T03:56:06;98401.00;;;13.20
11321;BMP180;5715;48.234;14.320;2023-04-20T03:58:54;98396.00;;;13.30
11321;BMP180;5715;48.234;14.320;2023-04-20T04:01:41;98391.00;;;13.10
11321;BMP180;5715;48.234;14.320;2023-04-20T04:04:30;98385.00;;;13.30
11321;BMP180;5715;48.234;14.320;2023-04-20T04:07:18;98391.00;;;13.20
11321;BMP180;5715;48.234;14.320;2023-04-20T04:10:08;98397.00;;;13.30
11321;BMP180;5715;48.234;14.320;2023-04-20T04:12:55;98396.00;;;13.10
11321;BMP180;5715;48.234;14.320;2023-04-20T04:15:43;98392.00;;;13.30
11321;BMP180;5715;48.234;14.320;2023-04-20T04:18:31;98387.00;;;13.20
11321;BMP180;5715;48.234;14.320;2023-04-20T04:21:19;98396.00;;;13.30
11321;BMP180;5715;48.234;14.320;2023-04-20T04:24:07;98388.00;;;13.30
11321;BMP180;5715;48.234;14.320;2023-04-20T04:26:56;98385.00;;;13.20
11321;BMP180;5715;48.234;14.320;2023-04-20T04:29:45;98392.00;;;13.30
11321;BMP180;5715;48.234;14.320;2023-04-20T04:32:32;98388.00;;;13.00
11321;BMP180;5715;48.234;14.320;2023-04-20T04:35:22;98388.00;;;13.30
11321;BMP180;5715;48.234;14.320;2023-04-20T04:38:11;98388.00;;;13.40
11321;BMP180;5715;48.234;14.320;2023-04-20T04:41:00;98387.00;;;13.40
11321;BMP180;5715;48.234;14.320;2023-04-20T04:43:47;98387.00;;;13.40
11321;BMP180;5715;48.234;14.320;2023-04-20T04:46:35;98388.00;;;13.30
11321;BMP180;5715;48.234;14.320;2023-04-20T04:49:23;98386.00;;;13.10
11321;BMP180;5715;48.234;14.320;2023-04-20T04:52:14;98388.00;;;13.40
11321;BMP180;5715;48.234;14.320;2023-04-20T04:55:02;98388.00;;;13.60
11321;BMP180;5715;48.234;14.320;2023-04-20T04:57:54;98394.00;;;13.70
11321;BMP180;5715;48.234;14.320;2023-04-20T05:00:43;98386.00;;;13.50
11321;BMP180;5715;48.234;14.320;2023-04-20T05:03:30;98397.00;;;13.80
11321;BMP180;5715;48.234;14.320;2023-04-20T05:06:18;98394.00;;;13.60
11321;BMP180;5715;48.234;14.320;2023-04-20T05:09:06;98392.00;;;13.50
11321;BMP180;5715;48.234;14.320;2023-04-20T05:11:53;98400.00;;;13.40
11321;BMP180;5715;48.234;14.320;2023-04-20T05:14:41;98397.00;;;13.40
11321;BMP180;5715;48.234;14.320;2023-04-20T05:17:28;98403.00;;;13.40
11321;BMP180;5715;48.234;14.320;2023-04-20T05:20:17;98397.00;;;13.60
11321;BMP180;5715;48.234;14.320;2023-04-20T05:23:05;98400.00;;;13.70
11321;BMP180;5715;48.234;14.320;2023-04-20T05:25:52;98406.00;;;13.70
11321;BMP180;5715;48.234;14.320;2023-04-20T05:28:40;98401.00;;;13.90
11321;BMP180;5715;48.234;14.320;2023-04-20T05:31:27;98400.00;;;13.80
11321;BMP180;5715;48.234;14.320;2023-04-20T05:34:15;98406.00;;;13.70
11321;BMP180;5715;48.234;14.320;2023-04-20T05:37:04;98408.00;;;13.90
11321;BMP180;5715;48.234;14.320;2023-04-20T05:39:52;98407.00;;;14.10
11321;BMP180;5715;48.234;14.320;2023-04-20T05:42:39;98405.00;;;14.00
11321;BMP180;5715;48.234;14.320;2023-04-20T05:45:27;98400.00;;;14.20
11321;BMP180;5715;48.234;14.320;2023-04-20T05:48:15;98395.00;;;14.40
11321;BMP180;5715;48.234;14.320;2023-04-20T05:51:02;98399.00;;;14.50
11321;BMP180;5715;48.234;14.320;2023-04-20T05:53:50;98398.00;;;14.50
11321;BMP180;5715;48.234;14.320;2023-04-20T05:56:37;98396.00;;;14.50
11321;BMP180;5715;48.234;14.320;2023-04-20T05:59:25;98399.00;;;14.50
11321;BMP180;5715;48.234;14.320;2023-04-20T06:02:13;98389.00;;;14.60
11321;BMP180;5715;48.234;14.320;2023-04-20T06:05:01;98394.00;;;14.70
11321;BMP180;5715;48.234;14.320;2023-04-20T06:07:49;98397.00;;;14.60
11321;BMP180;5715;48.234;14.320;2023-04-20T06:10:37;98405.00;;;14.80
11321;BMP180;5715;48.234;14.320;2023-04-20T06:13:24;98407.00;;;15.00
11321;BMP180;5715;48.234;14.320;2023-04-20T06:16:12;98406.00;;;15.00
11321;BMP180;5715;48.234;14.320;2023-04-20T06:19:00;98407.00;;;15.10
11321;BMP180;5715;48.234;14.320;2023-04-20T06:21:47;98405.00;;;15.10
11321;BMP180;5715;48.234;14.320;2023-04-20T06:24:35;98409.00;;;15.00
11321;BMP180;5715;48.234;14.320;2023-04-20T06:27:27;98411.00;;;15.30
11321;BMP180;5715;48.234;14.320;2023-04-20T06:30:15;98415.00;;;15.40
11321;BMP180;5715;48.234;14.320;2023-04-20T06:33:03;98415.00;;;15.30
11321;BMP180;5715;48.234;14.320;2023-04-20T06:35:50;98420.00;;;15.40
11321;BMP180;5715;48.234;14.320;2023-04-20T06:38:40;98416.00;;;15.40
11321;BMP180;5715;48.234;14.320;2023-04-20T06:41:28;98416.00;;;15.10
11321;BMP180;5715;48.234;14.320;2023-04-20T06:44:16;98420.00;;;15.50
11321;BMP180;5715;48.234;14.320;2023-04-20T06:47:03;98414.00;;;15.70
11321;BMP180;5715;48.234;14.320;2023-04-20T06:49:51;98411.00;;;15.70
11321;BMP180;5715;48.234;14.320;2023-04-20T06:52:39;98406.00;;;15.90
11321;BMP180;5715;48.234;14.320;2023-04-20T06:55:27;98415.00;;;16.10
11321;BMP180;5715;48.234;14.320;2023-04-20T06:58:14;98413.00;;;16.10
11321;BMP180;5715;48.234;14.320;2023-04-20T07:01:02;98414.00;;;16.20
11321;BMP180;5715;48.234;14.320;2023-04-20T07:03:50;98410.00;;;16.10
11321;BMP180;5715;48.234;14.320;2023-04-20T07:06:39;98412.00;;;16.40
11321;BMP180;5715;48.234;14.320;2023-04-20T07:09:26;98405.00;;;16.40
11321;BMP180;5715;48.234;14.320;2023-04-20T07:12:14;98401.00;;;16.40
11321;BMP180;5715;48.234;14.320;2023-04-20T07:15:03;98403.00;;;16.30
11321;BMP180;5715;48.234;14.320;2023-04-20T07:17:51;98400.00;;;16.50
11321;BMP180;5715;48.234;14.320;2023-04-20T07:20:39;98398.00;;;16.70
11321;BMP180;5715;48.234;14.320;2023-04-20T07:23:26;98406.00;;;16.70
11321;BMP180;5715;48.234;14.320;2023-04-20T07:26:14;98403.00;;;16.50
11321;BMP180;5715;48.234;14.320;2023-04-20T07:29:01;98402.00;;;16.40
11321;BMP180;5715;48.234;14.320;2023-04-20T07:31:49;98398.00;;;16.40
11321;BMP180;5715;48.234;14.320;2023-04-20T07:34:36;98394.00;;;16.50
11321;BMP180;5715;48.234;14.320;2023-04-20T07:37:24;98388.00;;;16.30
11321;BMP180;5715;48.234;14.320;2023-04-20T07:40:13;98393.00;;;15.60
11321;BMP180;5715;48.234;14.320;2023-04-20T07:43:03;98390.00;;;15.90
11321;BMP180;5715;48.234;14.320;2023-04-20T07:45:50;98387.00;;;15.90
11321;BMP180;5715;48.234;14.320;2023-04-20T07:48:38;98395.00;;;16.20
11321;BMP180;5715;48.234;14.320;2023-04-20T07:51:25;98402.00;;;16.30
11321;BMP180;5715;48.234;14.320;2023-04-20T07:54:16;98383.00;;;15.90
11321;BMP180;5715;48.234;14.320;2023-04-20T07:57:04;98394.00;;;16.20
11321;BMP180;5715;48.234;14.320;2023-04-20T07:59:52;98390.00;;;16.10
11321;BMP180;5715;48.234;14.320;2023-04-20T08:02:39;98394.00;;;16.20
11321;BMP180;5715;48.234;14.320;2023-04-20T08:05:27;98384.00;;;16.10
11321;BMP180;5715;48.234;14.320;2023-04-20T08:08:15;98386.00;;;16.50
11321;BMP180;5715;48.234;14.320;2023-04-20T08:11:04;98378.00;;;16.50
11321;BMP180;5715;48.234;14.320;2023-04-20T08:13:54;98382.00;;;16.40
11321;BMP180;5715;48.234;14.320;2023-04-20T08:16:44;98377.00;;;16.10
11321;BMP180;5715;48.234;14.320;2023-04-20T08:19:32;98364.00;;;16.40
11321;BMP180;5715;48.234;14.320;2023-04-20T08:22:20;98361.00;;;16.50
11321;BMP180;5715;48.234;14.320;2023-04-20T08:25:07;98363.00;;;16.40
11321;BMP180;5715;48.234;14.320;2023-04-20T08:27:55;98361.00;;;16.60
11321;BMP180;5715;48.234;14.320;2023-04-20T08:30:43;98357.00;;;17.00
11321;BMP180;5715;48.234;14.320;2023-04-20T08:33:32;98352.00;;;17.20
11321;BMP180;5715;48.234;14.320;2023-04-20T08:36:19;98346.00;;;16.50
11321;BMP180;5715;48.234;14.320;2023-04-20T08:39:17;98359.00;;;16.70
11321;BMP180;5715;48.234;14.320;2023-04-20T08:42:05;98343.00;;;16.70
11321;BMP180;5715;48.234;14.320;2023-04-20T08:44:53;98351.00;;;17.00
11321;BMP180;5715;48.234;14.320;2023-04-20T08:47:42;98352.00;;;16.80
11321;BMP180;5715;48.234;14.320;2023-04-20T08:50:31;98343.00;;;16.90
11321;BMP180;5715;48.234;14.320;2023-04-20T08:53:19;98340.00;;;17.00
11321;BMP180;5715;48.234;14.320;2023-04-20T08:56:08;98330.00;;;17.40
11321;BMP180;5715;48.234;14.320;2023-04-20T08:58:56;98324.00;;;17.40
11321;BMP180;5715;48.234;14.320;2023-04-20T09:01:46;98322.00;;;17.40
11321;BMP180;5715;48.234;14.320;2023-04-20T09:04:34;98334.00;;;17.80
11321;BMP180;5715;48.234;14.320;2023-04-20T09:07:22;98322.00;;;18.10
11321;BMP180;5715;48.234;14.320;2023-04-20T09:10:10;98323.00;;;18.10
11321;BMP180;5715;48.234;14.320;2023-04-20T09:12:57;98322.00;;;18.60
11321;BMP180;5715;48.234;14.320;2023-04-20T09:15:45;98316.00;;;18.20
11321;BMP180;5715;48.234;14.320;2023-04-20T09:18:32;98312.00;;;18.20
11321;BMP180;5715;48.234;14.320;2023-04-20T09:21:20;98312.00;;;18.10
11321;BMP180;5715;48.234;14.320;2023-04-20T09:24:11;98308.00;;;18.30
11321;BMP180;5715;48.234;14.320;2023-04-20T09:26:59;98301.00;;;17.50
11321;BMP180;5715;48.234;14.320;2023-04-20T09:29:59;98304.00;;;18.30
11321;BMP180;5715;48.234;14.320;2023-04-20T09:32:47;98296.00;;;18.90
11321;BMP180;5715;48.234;14.320;2023-04-20T09:35:36;98305.00;;;18.60
11321;BMP180;5715;48.234;14.320;2023-04-20T09:38:26;98297.00;;;19.00
11321;BMP180;5715;48.234;14.320;2023-04-20T09:41:17;98295.00;;;19.20
11321;BMP180;5715;48.234;14.320;2023-04-20T09:44:06;98305.00;;;19.30
11321;BMP180;5715;48.234;14.320;2023-04-20T09:46:54;98300.00;;;19.50
11321;BMP180;5715;48.234;14.320;2023-04-20T09:49:46;98280.00;;;19.50
11321;BMP180;5715;48.234;14.320;2023-04-20T09:52:36;98280.00;;;19.10
11321;BMP180;5715;48.234;14.320;2023-04-20T09:55:26;98298.00;;;19.60
11321;BMP180;5715;48.234;14.320;2023-04-20T09:58:17;98289.00;;;19.30
11321;BMP180;5715;48.234;14.320;2023-04-20T10:01:09;98287.00;;;18.80
11321;BMP180;5715;48.234;14.320;2023-04-20T10:04:00;98282.00;;;19.20
11321;BMP180;5715;48.234;14.320;2023-04-20T10:06:54;98285.00;;;18.80
11321;BMP180;5715;48.234;14.320;2023-04-20T10:09:44;98272.00;;;18.80
11321;BMP180;5715;48.234;14.320;2023-04-20T10:12:31;98279.00;;;19.00
11321;BMP180;5715;48.234;14.320;2023-04-20T10:15:20;98269.00;;;19.50
11321;BMP180;5715;48.234;14.320;2023-04-20T10:18:17;98262.00;;;19.60
11321;BMP180;5715;48.234;14.320;2023-04-20T10:21:07;98259.00;;;19.30
11321;BMP180;5715;48.234;14.320;2023-04-20T10:23:55;98271.00;;;19.80
11321;BMP180;5715;48.234;14.320;2023-04-20T10:26:45;98247.00;;;20.10
11321;BMP180;5715;48.234;14.320;2023-04-20T10:29:33;98246.00;;;19.90
11321;BMP180;5715;48.234;14.320;2023-04-20T10:32:29;98249.00;;;19.40
11321;BMP180;5715;48.234;14.320;2023-04-20T10:35:17;98232.00;;;19.80
11321;BMP180;5715;48.234;14.320;2023-04-20T10:38:04;98242.00;;;19.30
11321;BMP180;5715;48.234;14.320;2023-04-20T10:40:52;98228.00;;;19.30
11321;BMP180;5715;48.234;14.320;2023-04-20T10:43:40;98227.00;;;19.70
11321;BMP180;5715;48.234;14.320;2023-04-20T10:46:30;98230.00;;;20.30
11321;BMP180;5715;48.234;14.320;2023-04-20T10:49:18;98225.00;;;20.80
11321;BMP180;5715;48.234;14.320;2023-04-20T10:52:06;98208.00;;;20.10
11321;BMP180;5715;48.234;14.320;2023-04-20T10:54:54;98212.00;;;20.60
11321;BMP180;5715;48.234;14.320;2023-04-20T10:57:44;98222.00;;;20.40
11321;BMP180;5715;48.234;14.320;2023-04-20T11:00:31;98222.00;;;20.00
11321;BMP180;5715;48.234;14.320;2023-04-20T11:03:19;98200.00;;;20.00
11321;BMP180;5715;48.234;14.320;2023-04-20T11:06:07;98206.00;;;20.50
11321;BMP180;5715;48.234;14.320;2023-04-20T11:08:55;98203.00;;;20.80
11321;BMP180;5715;48.234;14.320;2023-04-20T11:11:43;98191.00;;;20.80
11321;BMP180;5715;48.234;14.320;2023-04-20T11:14:50;98199.00;;;21.40
11321;BMP180;5715;48.234;14.320;2023-04-20T11:17:38;98194.00;;;21.30
11321;BMP180;5715;48.234;14.320;2023-04-20T11:20:26;98184.00;;;21.20
11321;BMP180;5715;48.234;14.320;2023-04-20T11:23:14;98196.00;;;21.50
11321;BMP180;5715;48.234;14.320;2023-04-20T11:26:02;98197.00;;;21.10
11321;BMP180;5715;48.234;14.320;2023-04-20T11:28:51;98183.00;;;21.70
11321;BMP180;5715;48.234;14.320;2023-04-20T11:31:49;98191.00;;;21.80
11321;BMP180;5715;48.234;14.320;2023-04-20T11:34:38;98181.00;;;21.60
11321;BMP180;5715;48.234;14.320;2023-04-20T11:37:27;98178.00;;;21.60
11321;BMP180;5715;48.234;14.320;2023-04-20T11:40:15;98179.00;;;21.50
11321;BMP180;5715;48.234;14.320;2023-04-20T11:43:03;98182.00;;;21.90
11321;BMP180;5715;48.234;14.320;2023-04-20T11:45:51;98176.00;;;22.00
11321;BMP180;5715;48.234;14.320;2023-04-20T11:48:38;98168.00;;;22.00
11321;BMP180;5715;48.234;14.320;2023-04-20T11:51:26;98178.00;;;22.10
11321;BMP180;5715;48.234;14.320;2023-04-20T11:54:14;98170.00;;;22.10
11321;BMP180;5715;48.234;14.320;2023-04-20T11:57:02;98166.00;;;22.10
11321;BMP180;5715;48.234;14.320;2023-04-20T11:59:50;98172.00;;;22.20
11321;BMP180;5715;48.234;14.320;2023-04-20T12:02:38;98176.00;;;22.80
11321;BMP180;5715;48.234;14.320;2023-04-20T12:05:26;98157.00;;;22.80
11321;BMP180;5715;48.234;14.320;2023-04-20T12:08:13;98174.00;;;22.20
11321;BMP180;5715;48.234;14.320;2023-04-20T12:11:03;98171.00;;;22.60
11321;BMP180;5715;48.234;14.320;2023-04-20T12:13:51;98167.00;;;22.50
11321;BMP180;5715;48.234;14.320;2023-04-20T12:16:39;98173.00;;;22.30
11321;BMP180;5715;48.234;14.320;2023-04-20T12:19:27;98172.00;;;23.00
11321;BMP180;5715;48.234;14.320;2023-04-20T12:22:14;98168.00;;;22.70
11321;BMP180;5715;48.234;14.320;2023-04-20T12:25:02;98156.00;;;23.00
11321;BMP180;5715;48.234;14.320;2023-04-20T12:27:50;98174.00;;;23.00
11321;BMP180;5715;48.234;14.320;2023-04-20T12:30:38;98155.00;;;22.90
11321;BMP180;5715;48.234;14.320;2023-04-20T12:33:25;98153.00;;;23.20
11321;BMP180;5715;48.234;14.320;2023-04-20T12:36:13;98147.00;;;22.10
11321;BMP180;5715;48.234;14.320;2023-04-20T12:39:00;98156.00;;;22.60
11321;BMP180;5715;48.234;14.320;2023-04-20T12:41:48;98138.00;;;22.40
11321;BMP180;5715;48.234;14.320;2023-04-20T12:44:36;98150.00;;;22.80
11321;BMP180;5715;48.234;14.320;2023-04-20T12:47:23;98137.00;;;22.40
11321;BMP180;5715;48.234;14.320;2023-04-20T12:50:11;98141.00;;;22.60
11321;BMP180;5715;48.234;14.320;2023-04-20T12:52:58;98143.00;;;23.00
11321;BMP180;5715;48.234;14.320;2023-04-20T12:55:46;98134.00;;;23.20
11321;BMP180;5715;48.234;14.320;2023-04-20T12:58:39;98132.00;;;23.40
11321;BMP180;5715;48.234;14.320;2023-04-20T13:01:26;98129.00;;;22.90
11321;BMP180;5715;48.234;14.320;2023-04-20T13:04:14;98142.00;;;22.70
11321;BMP180;5715;48.234;14.320;2023-04-20T13:07:02;98124.00;;;22.70
11321;BMP180;5715;48.234;14.320;2023-04-20T13:09:50;98133.00;;;23.20
11321;BMP180;5715;48.234;14.320;2023-04-20T13:12:38;98105.00;;;22.70
11321;BMP180;5715;48.234;14.320;2023-04-20T13:15:25;98115.00;;;22.90
11321;BMP180;5715;48.234;14.320;2023-04-20T13:18:25;98103.00;;;22.80
11321;BMP180;5715;48.234;14.320;2023-04-20T13:21:12;98129.00;;;23.40
11321;BMP180;5715;48.234;14.320;2023-04-20T13:24:00;98111.00;;;23.70
11321;BMP180;5715;48.234;14.320;2023-04-20T13:26:51;98110.00;;;24.00
11321;BMP180;5715;48.234;14.320;2023-04-20T13:29:39;98107.00;;;24.00
11321;BMP180;5715;48.234;14.320;2023-04-20T13:32:27;98103.00;;;24.20
11321;BMP180;5715;48.234;14.320;2023-04-20T13:35:16;98096.00;;;23.30
11321;BMP180;5715;48.234;14.320;2023-04-20T13:38:04;98093.00;;;23.20
11321;BMP180;5715;48.234;14.320;2023-04-20T13:40:52;98097.00;;;22.70
11321;BMP180;5715;48.234;14.320;2023-04-20T13:43:39;98097.00;;;23.10
11321;BMP180;5715;48.234;14.320;2023-04-20T13:46:28;98087.00;;;22.80
11321;BMP180;5715;48.234;14.320;2023-04-20T13:49:16;98093.00;;;22.90
11321;BMP180;5715;48.234;14.320;2023-04-20T13:52:03;98085.00;;;22.90
11321;BMP180;5715;48.234;14.320;2023-04-20T13:54:51;98077.00;;;23.90
11321;BMP180;5715;48.234;14.320;2023-04-20T13:57:38;98092.00;;;24.20
11321;BMP180;5715;48.234;14.320;2023-04-20T14:00:26;98090.00;;;24.10
11321;BMP180;5715;48.234;14.320;2023-04-20T14:03:13;98086.00;;;23.90
11321;BMP180;5715;48.234;14.320;2023-04-20T14:06:02;98087.00;;;24.40
11321;BMP180;5715;48.234;14.320;2023-04-20T14:08:50;98091.00;;;24.30
11321;BMP180;5715;48.234;14.320;2023-04-20T14:11:37;98092.00;;;24.20
11321;BMP180;5715;48.234;14.320;2023-04-20T14:14:25;98082.00;;;24.60
11321;BMP180;5715;48.234;14.320;2023-04-20T14:17:12;98083.00;;;24.30
11321;BMP180;5715;48.234;14.320;2023-04-20T14:20:01;98088.00;;;24.40
11321;BMP180;5715;48.234;14.320;2023-04-20T14:22:50;98090.00;;;23.90
11321;BMP180;5715;48.234;14.320;2023-04-20T14:25:38;98084.00;;;24.50
11321;BMP180;5715;48.234;14.320;2023-04-20T14:28:25;98087.00;;;24.30
11321;BMP180;5715;48.234;14.320;2023-04-20T14:31:13;98089.00;;;24.30
11321;BMP180;5715;48.234;14.320;2023-04-20T14:34:02;98077.00;;;24.80
11321;BMP180;5715;48.234;14.320;2023-04-20T14:36:50;98078.00;;;24.70
11321;BMP180;5715;48.234;14.320;2023-04-20T14:39:37;98078.00;;;24.40
11321;BMP180;5715;48.234;14.320;2023-04-20T14:42:25;98088.00;;;24.40
11321;BMP180;5715;48.234;14.320;2023-04-20T14:45:13;98085.00;;;24.20
11321;BMP180;5715;48.234;14.320;2023-04-20T14:48:00;98073.00;;;23.70
11321;BMP180;5715;48.234;14.320;2023-04-20T14:50:48;98080.00;;;23.30
11321;BMP180;5715;48.234;14.320;2023-04-20T14:53:35;98077.00;;;23.20
11321;BMP180;5715;48.234;14.320;2023-04-20T14:56:23;98072.00;;;24.00
11321;BMP180;5715;48.234;14.320;2023-04-20T14:59:10;98074.00;;;24.00
11321;BMP180;5715;48.234;14.320;2023-04-20T15:01:58;98068.00;;;24.10
11321;BMP180;5715;48.234;14.320;2023-04-20T15:04:49;98072.00;;;24.30
11321;BMP180;5715;48.234;14.320;2023-04-20T15:07:37;98081.00;;;24.00
11321;BMP180;5715;48.234;14.320;2023-04-20T15:10:25;98075.00;;;23.70
11321;BMP180;5715;48.234;14.320;2023-04-20T15:13:14;98073.00;;;23.70
11321;BMP180;5715;48.234;14.320;2023-04-20T15:16:01;98072.00;;;23.80
11321;BMP180;5715;48.234;14.320;2023-04-20T15:18:52;98077.00;;;23.50
11321;BMP180;5715;48.234;14.320;2023-04-20T15:21:40;98071.00;;;23.20
11321;BMP180;5715;48.234;14.320;2023-04-20T15:24:30;98067.00;;;23.00
11321;BMP180;5715;48.234;14.320;2023-04-20T15:27:19;98074.00;;;23.50
11321;BMP180;5715;48.234;14.320;2023-04-20T15:30:07;98070.00;;;23.00
11321;BMP180;5715;48.234;14.320;2023-04-20T15:32:55;98075.00;;;23.00
11321;BMP180;5715;48.234;14.320;2023-04-20T15:35:51;98071.00;;;23.10
11321;BMP180;5715;48.234;14.320;2023-04-20T15:38:39;98068.00;;;23.00
11321;BMP180;5715;48.234;14.320;2023-04-20T15:41:27;98067.00;;;22.70
11321;BMP180;5715;48.234;14.320;2023-04-20T15:44:15;98071.00;;;23.30
11321;BMP180;5715;48.234;14.320;2023-04-20T15:47:02;98074.00;;;23.00
11321;BMP180;5715;48.234;14.320;2023-04-20T15:49:50;98069.00;;;23.30
11321;BMP180;5715;48.234;14.320;2023-04-20T15:52:38;98071.00;;;23.30
11321;BMP180;5715;48.234;14.320;2023-04-20T15:55:25;98062.00;;;23.10
11321;BMP180;5715;48.234;14.320;2023-04-20T15:58:13;98066.00;;;23.20
11321;BMP180;5715;48.234;14.320;2023-04-20T16:01:01;98061.00;;;22.80
11321;BMP180;5715;48.234;14.320;2023-04-20T16:03:48;98061.00;;;23.00
11321;BMP180;5715;48.234;14.320;2023-04-20T16:06:37;98063.00;;;23.40
11321;BMP180;5715;48.234;14.320;2023-04-20T16:09:24;98049.00;;;22.90